createdAt,value
2018-12-31T00:07:24.188Z,19.65
2018-12-31T00:12:27.757Z,22.13
2018-12-31T00:17:31.126Z,21.50
2018-12-31T00:22:34.686Z,20.25
2018-12-31T00:27:38.792Z,31.55
2018-12-31T00:32:42.260Z,37.67
2018-12-31T00:37:47.515Z,30.72
2018-12-31T00:42:50.990Z,35.25
2018-12-31T00:47:54.434Z,29.25
2018-12-31T00:52:58.349Z,23.70
2018-12-31T00:58:02.112Z,45.52
2018-12-31T01:03:05.649Z,22.05
2018-12-31T01:08:09.141Z,23.15
2018-12-31T01:13:12.691Z,26.57
2018-12-31T01:18:16.213Z,26.45
2018-12-31T01:23:19.724Z,17.87
2018-12-31T01:28:23.275Z,18.50
2018-12-31T01:33:27.722Z,16.93
2018-12-31T01:38:31.196Z,24.25
2018-12-31T01:43:34.687Z,30.80
2018-12-31T01:48:38.146Z,20.45
2018-12-31T01:53:41.581Z,24.52
2018-12-31T01:58:45.123Z,31.20
2018-12-31T02:03:49.145Z,33.65
2018-12-31T02:08:52.624Z,32.48
2018-12-31T02:13:55.956Z,45.63
2018-12-31T02:18:59.502Z,31.60
2018-12-31T02:24:03.060Z,19.30
2018-12-31T02:29:06.646Z,17.55
2018-12-31T02:34:10.123Z,28.23
2018-12-31T02:39:13.520Z,23.05
2018-12-31T02:44:17.194Z,22.75
2018-12-31T02:49:20.751Z,18.55
2018-12-31T02:54:24.195Z,20.52
2018-12-31T02:59:27.616Z,24.63
2018-12-31T03:04:31.125Z,23.38
2018-12-31T03:09:34.674Z,24.98
2018-12-31T03:14:37.988Z,18.20
2018-12-31T03:19:41.269Z,16.02
2018-12-31T03:24:44.679Z,18.20
2018-12-31T03:29:48.261Z,25.48
2018-12-31T03:34:51.919Z,19.52
2018-12-31T03:39:55.460Z,17.10
2018-12-31T03:44:58.828Z,21.00
2018-12-31T03:50:02.314Z,34.43
2018-12-31T03:55:05.928Z,33.98
2018-12-31T04:00:09.536Z,20.20
2018-12-31T04:05:13.295Z,17.42
2018-12-31T04:10:16.623Z,21.70
2018-12-31T04:15:20.001Z,30.32
2018-12-31T04:20:23.444Z,31.33
2018-12-31T04:25:26.790Z,17.57
2018-12-31T04:30:30.288Z,16.02
2018-12-31T04:35:33.553Z,15.78
2018-12-31T04:40:36.897Z,16.93
2018-12-31T04:45:40.285Z,19.37
2018-12-31T04:50:43.651Z,16.87
2018-12-31T04:55:46.993Z,19.25
2018-12-31T05:00:50.465Z,21.07
2018-12-31T05:05:53.816Z,26.48
2018-12-31T05:10:58.450Z,26.20
2018-12-31T05:16:01.745Z,25.10
2018-12-31T05:21:05.101Z,27.35
2018-12-31T05:26:08.447Z,38.73
2018-12-31T05:31:11.853Z,51.58
2018-12-31T05:36:15.298Z,61.55
2018-12-31T05:41:18.578Z,51.98
2018-12-31T05:46:22.037Z,35.95
2018-12-31T05:51:25.465Z,34.00
2018-12-31T05:56:28.651Z,43.15
2018-12-31T06:01:32.140Z,43.38
2018-12-31T06:06:35.516Z,36.30
2018-12-31T06:11:38.950Z,40.92
2018-12-31T06:16:42.374Z,27.58
2018-12-31T06:21:45.665Z,46.15
2018-12-31T06:26:49.020Z,23.40
2018-12-31T06:31:52.723Z,21.33
2018-12-31T06:36:56.331Z,29.35
2018-12-31T06:41:59.873Z,30.45
2018-12-31T06:47:05.274Z,18.20
2018-12-31T06:52:08.963Z,26.65
2018-12-31T06:57:13.647Z,34.08
2018-12-31T07:02:17.124Z,39.10
2018-12-31T07:07:20.732Z,34.30
2018-12-31T07:12:24.114Z,29.63
2018-12-31T07:17:27.668Z,24.98
2018-12-31T07:22:31.243Z,40.00
2018-12-31T07:27:34.891Z,37.20
2018-12-31T07:32:38.545Z,25.68
2018-12-31T07:37:42.392Z,57.70
2018-12-31T07:42:46.199Z,64.97
2018-12-31T07:47:52.118Z,57.40
2018-12-31T07:52:55.624Z,64.00
2018-12-31T07:58:00.371Z,52.20
2018-12-31T08:03:03.854Z,27.73
2018-12-31T08:08:07.283Z,18.32
2018-12-31T08:13:11.099Z,23.20
2018-12-31T08:18:14.674Z,25.90
2018-12-31T08:23:18.201Z,22.17
2018-12-31T08:28:21.560Z,30.00
2018-12-31T08:33:25.017Z,25.92
2018-12-31T08:38:28.485Z,30.15
2018-12-31T08:43:32.151Z,29.40
2018-12-31T08:48:37.344Z,34.88
2018-12-31T08:53:40.780Z,28.50
2018-12-31T08:58:44.504Z,23.45
2018-12-31T09:03:47.939Z,35.05
2018-12-31T09:08:51.468Z,28.50
2018-12-31T09:13:54.995Z,27.13
2018-12-31T09:18:58.285Z,39.03
2018-12-31T09:24:01.682Z,34.65
2018-12-31T09:29:04.999Z,40.95
2018-12-31T09:34:08.357Z,24.37
2018-12-31T09:39:11.834Z,36.55
2018-12-31T09:44:15.085Z,30.02
2018-12-31T09:49:19.540Z,31.20
2018-12-31T09:54:22.976Z,25.10
2018-12-31T09:59:26.253Z,22.35
2018-12-31T10:04:29.739Z,24.00
2018-12-31T10:09:33.214Z,22.95
2018-12-31T10:14:36.537Z,19.77
2018-12-31T10:19:39.941Z,21.05
2018-12-31T10:24:43.245Z,23.20
2018-12-31T10:29:47.182Z,22.37
2018-12-31T10:34:50.628Z,32.35
2018-12-31T10:39:53.990Z,32.55
2018-12-31T10:44:57.409Z,36.70
2018-12-31T10:50:01.682Z,33.83
2018-12-31T10:55:07.091Z,21.97
2018-12-31T11:00:10.595Z,25.35
2018-12-31T11:05:15.710Z,22.30
2018-12-31T11:10:19.615Z,30.80
2018-12-31T11:15:23.078Z,34.15
2018-12-31T11:20:26.412Z,28.85
2018-12-31T11:25:29.907Z,21.68
2018-12-31T11:30:33.275Z,18.15
2018-12-31T11:35:36.958Z,18.65
2018-12-31T11:40:40.292Z,22.48
2018-12-31T11:45:43.584Z,29.50
2018-12-31T11:50:51.669Z,27.02
2018-12-31T11:55:55.345Z,28.62
2018-12-31T12:00:58.638Z,28.52
2018-12-31T12:06:02.396Z,40.45
2018-12-31T12:11:05.822Z,31.70
2018-12-31T12:16:09.475Z,25.00
2018-12-31T12:21:12.830Z,25.40
2018-12-31T12:26:16.379Z,76.17
2018-12-31T12:31:19.916Z,56.50
2018-12-31T12:36:23.689Z,55.17
2018-12-31T12:41:27.091Z,39.03
2018-12-31T12:46:31.095Z,48.25
2018-12-31T12:51:34.506Z,30.57
2018-12-31T12:56:38.110Z,27.60
2018-12-31T13:01:41.532Z,38.53
2018-12-31T13:06:45.156Z,28.15
2018-12-31T13:11:48.499Z,32.30
2018-12-31T13:16:52.594Z,33.60
2018-12-31T13:21:56.100Z,44.77
2018-12-31T13:26:59.317Z,37.88
2018-12-31T13:32:03.674Z,28.00
2018-12-31T13:37:07.101Z,84.77
2018-12-31T13:42:10.577Z,32.38
2018-12-31T13:47:13.943Z,26.10
2018-12-31T13:52:18.217Z,27.60
2018-12-31T13:57:21.654Z,35.98
2018-12-31T14:02:24.995Z,33.70
2018-12-31T14:07:28.677Z,22.15
2018-12-31T14:12:32.196Z,34.60
2018-12-31T14:17:36.087Z,32.33
2018-12-31T14:22:39.588Z,27.75
2018-12-31T14:27:42.853Z,32.55
2018-12-31T14:32:46.296Z,34.60
2018-12-31T14:37:49.746Z,32.28
2018-12-31T14:42:53.215Z,53.68
2018-12-31T14:47:56.526Z,38.83
2018-12-31T14:52:59.961Z,57.23
2018-12-31T14:58:03.520Z,58.90
2018-12-31T15:03:07.079Z,58.92
2018-12-31T15:08:10.446Z,63.60
2018-12-31T15:13:14.216Z,99.22
2018-12-31T15:18:17.880Z,93.82
2018-12-31T15:26:56.022Z,99.07
2018-12-31T15:32:01.481Z,64.05
2018-12-31T15:37:05.615Z,74.20
2018-12-31T15:42:09.657Z,74.03
2018-12-31T15:47:13.946Z,103.78
2018-12-31T15:52:18.526Z,113.28
2018-12-31T15:57:23.568Z,50.33
2018-12-31T16:02:27.919Z,65.47
2018-12-31T16:07:32.148Z,57.23
2018-12-31T16:12:36.256Z,60.73
2018-12-31T16:17:41.278Z,142.55
2018-12-31T16:22:45.557Z,92.92
2018-12-31T16:27:50.646Z,54.23
2018-12-31T16:32:54.928Z,56.05
2018-12-31T16:37:59.169Z,60.40
2018-12-31T16:43:03.246Z,90.38
2018-12-31T16:48:07.763Z,73.17
2018-12-31T16:53:11.814Z,58.92
2018-12-31T16:58:16.393Z,55.00
2018-12-31T17:03:20.326Z,63.58
2018-12-31T17:08:24.936Z,37.13
2018-12-31T17:13:29.100Z,177.60
2018-12-31T17:18:33.060Z,101.33
2018-12-31T17:23:37.016Z,79.65
2018-12-31T17:28:41.236Z,91.08
2018-12-31T17:33:45.724Z,78.52
2018-12-31T17:38:49.618Z,128.82
2018-12-31T17:43:54.463Z,62.60
2018-12-31T17:48:58.403Z,94.95
2018-12-31T17:54:02.483Z,103.60
2018-12-31T17:59:07.381Z,246.75
2018-12-31T18:04:11.314Z,114.17
2018-12-31T18:09:15.226Z,91.35
2018-12-31T18:14:19.329Z,89.60
2018-12-31T18:19:23.553Z,109.32
2018-12-31T18:24:28.384Z,80.25
2018-12-31T18:29:32.383Z,116.62
2018-12-31T18:34:36.936Z,122.28
2018-12-31T18:39:40.995Z,117.87
2018-12-31T18:44:44.947Z,102.80
2018-12-31T18:49:49.124Z,65.78
2018-12-31T18:54:53.186Z,88.78
2018-12-31T18:59:57.214Z,85.03
2018-12-31T19:05:01.781Z,52.23
2018-12-31T19:10:05.723Z,58.33
2018-12-31T19:15:11.813Z,57.43
2018-12-31T19:20:16.186Z,36.20
2018-12-31T19:25:20.536Z,30.10
2018-12-31T19:30:24.451Z,68.62
2018-12-31T19:35:29.252Z,150.32
2018-12-31T19:40:33.923Z,91.67
2018-12-31T19:45:37.965Z,78.75
2018-12-31T19:50:42.064Z,83.20
2018-12-31T19:55:45.987Z,96.12
2018-12-31T20:00:50.115Z,54.45
2018-12-31T20:05:53.997Z,36.15
2018-12-31T20:10:58.679Z,37.33
2018-12-31T20:16:02.642Z,42.27
2018-12-31T20:21:06.611Z,59.85
2018-12-31T20:26:10.470Z,121.42
2018-12-31T20:31:14.765Z,47.77
2018-12-31T20:36:19.312Z,52.23
2018-12-31T20:41:23.535Z,134.45
2018-12-31T20:46:27.577Z,60.55
2018-12-31T20:51:31.988Z,52.67
2018-12-31T20:56:35.893Z,37.17
2018-12-31T21:01:39.797Z,52.43
2018-12-31T21:06:43.729Z,86.47
2018-12-31T21:11:47.753Z,53.35
2018-12-31T21:16:51.848Z,51.60
2018-12-31T21:21:55.832Z,49.10
2018-12-31T21:27:01.147Z,38.40
2018-12-31T21:32:05.134Z,46.90
2018-12-31T21:37:09.615Z,47.60
2018-12-31T21:42:13.643Z,23.47
2018-12-31T21:47:17.739Z,34.58
2018-12-31T21:52:21.573Z,40.35
2018-12-31T21:57:25.652Z,32.80
2018-12-31T22:02:29.437Z,50.50
2018-12-31T22:07:33.837Z,297.55
2018-12-31T22:12:37.699Z,140.62
2018-12-31T22:17:42.102Z,121.40
2018-12-31T22:22:46.172Z,143.30
2018-12-31T22:27:50.099Z,127.80
2018-12-31T22:32:54.088Z,76.72
2018-12-31T22:37:58.364Z,26.00
2018-12-31T22:43:02.560Z,101.12
2018-12-31T22:48:06.921Z,106.10
2018-12-31T22:53:11.011Z,33.80
2018-12-31T22:58:14.920Z,51.10
2018-12-31T23:03:18.821Z,25.05
2018-12-31T23:08:22.846Z,37.38
2018-12-31T23:13:30.350Z,25.50
2018-12-31T23:18:34.410Z,21.05
2018-12-31T23:23:38.657Z,34.65
2018-12-31T23:28:42.933Z,26.45
2018-12-31T23:33:46.958Z,31.23
2018-12-31T23:38:51.144Z,35.08
2018-12-31T23:43:55.057Z,27.93
2018-12-31T23:48:59.223Z,27.13
2018-12-31T23:54:03.175Z,23.52
2018-12-31T23:59:07.379Z,21.23
